createdAt,value
2022-08-14T00:00:55.470Z,98311.59
2022-08-14T00:04:02.599Z,98306.72
2022-08-14T00:07:24.881Z,98307.31
2022-08-14T00:10:50.433Z,98305.88
2022-08-14T00:13:52.972Z,98305.31
2022-08-14T00:17:07.063Z,98305.03
2022-08-14T00:20:09.802Z,98302.47
2022-08-14T00:23:16.534Z,98298.44
2022-08-14T00:26:23.127Z,98291.28
2022-08-14T00:29:27.093Z,98293.63
2022-08-14T00:32:53.122Z,98295.47
2022-08-14T00:36:36.866Z,98306.56
2022-08-14T00:39:18.047Z,98300.16
2022-08-14T00:42:52.533Z,98293.72
2022-08-14T00:45:43.390Z,98292.41
2022-08-14T00:48:57.867Z,98293.16
2022-08-14T00:52:00.702Z,98284.75
2022-08-14T00:55:03.592Z,98279.59
2022-08-14T00:58:27.674Z,98280.44
2022-08-14T01:01:36.158Z,98279.59
2022-08-14T01:04:54.025Z,98286.44
2022-08-14T01:08:00.891Z,98271.47
2022-08-14T01:11:05.947Z,98269.31
2022-08-14T01:14:25.514Z,98268.47
2022-08-14T01:17:50.831Z,98271.31
2022-08-14T01:21:08.984Z,98270.63
2022-08-14T01:24:22.967Z,98270.16
2022-08-14T01:27:32.058Z,98267.03
2022-08-14T01:30:57.492Z,98263.03
2022-08-14T01:35:20.191Z,98262.16
2022-08-14T01:37:24.937Z,98261.59
2022-08-14T01:40:40.865Z,98254.88
2022-08-14T01:43:56.745Z,98253.19
2022-08-14T01:47:01.171Z,98243.19
2022-08-14T01:50:05.973Z,98237.63
2022-08-14T01:53:08.580Z,98236.91
2022-08-14T01:56:18.236Z,98237.34
2022-08-14T01:59:21.979Z,98232.09
2022-08-14T02:02:23.878Z,98229.38
2022-08-14T02:05:34.982Z,98224.22
2022-08-14T02:08:52.397Z,98227.78
2022-08-14T02:11:57.010Z,98226.06
2022-08-14T02:15:01.429Z,98220.09
2022-08-14T02:18:04.474Z,98229.63
2022-08-14T02:21:06.313Z,98215.22
2022-08-14T02:24:09.393Z,98211.81
2022-08-14T02:28:24.312Z,98213.50
2022-08-14T02:30:55.418Z,98210.94
2022-08-14T02:33:57.564Z,98207.94
2022-08-14T02:37:06.642Z,98194.31
2022-08-14T02:40:09.419Z,98189.84
2022-08-14T02:43:14.006Z,98184.00
2022-08-14T02:46:20.386Z,98187.88
2022-08-14T02:49:34.302Z,98188.00
2022-08-14T02:52:57.117Z,98190.97
2022-08-14T02:56:02.566Z,98178.72
2022-08-14T02:59:09.590Z,98185.16
2022-08-14T03:02:48.760Z,98174.56
2022-08-14T03:05:37.038Z,98175.31
2022-08-14T03:08:46.064Z,98175.31
2022-08-14T03:11:48.391Z,98176.53
2022-08-14T03:14:56.435Z,98169.69
2022-08-14T03:17:58.723Z,98173.41
2022-08-14T03:21:01.962Z,98172.56
2022-08-14T03:24:21.669Z,98175.53
2022-08-14T03:27:26.552Z,98173.25
2022-08-14T03:30:41.149Z,98164.41
2022-08-14T03:33:44.035Z,98156.72
2022-08-14T03:37:39.185Z,98156.84
2022-08-14T03:40:11.326Z,98140.75
2022-08-14T03:43:19.221Z,98143.91
2022-08-14T03:46:52.166Z,98138.50
2022-08-14T03:49:49.922Z,98143.03
2022-08-14T03:52:57.244Z,98132.22
2022-08-14T03:56:02.494Z,98132.63
2022-08-14T03:59:08.185Z,98141.19
2022-08-14T04:02:32.923Z,98136.91
2022-08-14T04:05:43.305Z,98128.34
2022-08-14T04:08:50.474Z,98127.06
2022-08-14T04:11:52.099Z,98123.63
2022-08-14T04:14:53.923Z,98124.06
2022-08-14T04:17:57.485Z,98121.19
2022-08-14T04:20:59.434Z,98122.31
2022-08-14T04:24:02.247Z,98121.31
2022-08-14T04:27:04.108Z,98115.91
2022-08-14T04:30:06.554Z,98111.06
2022-08-14T04:33:18.425Z,98102.69
2022-08-14T04:36:23.926Z,98104.13
2022-08-14T04:39:46.364Z,98096.44
2022-08-14T04:43:14.333Z,98106.28
2022-08-14T04:46:55.547Z,98100.88
2022-08-14T04:49:57.022Z,98100.28
2022-08-14T04:52:59.541Z,98093.88
2022-08-14T04:56:10.448Z,98085.50
2022-08-14T04:59:26.071Z,98084.50
2022-08-14T05:02:28.888Z,98089.78
2022-08-14T05:05:34.273Z,98097.44
2022-08-14T05:08:53.960Z,98091.75
2022-08-14T05:13:01.052Z,98093.91
2022-08-14T05:15:21.575Z,98085.34
2022-08-14T05:18:52.954Z,98083.97
2022-08-14T05:21:58.099Z,98081.97
2022-08-14T05:25:04.346Z,98087.81
2022-08-14T05:28:11.289Z,98084.81
2022-08-14T05:31:20.654Z,98086.38
2022-08-14T05:34:28.782Z,98086.09
2022-08-14T05:37:34.643Z,98084.81
2022-08-14T05:40:36.413Z,98082.38
2022-08-14T05:43:41.400Z,98093.78
2022-08-14T05:46:43.611Z,98090.66
2022-08-14T05:49:48.679Z,98093.91
2022-08-14T05:52:52.029Z,98093.34
2022-08-14T05:55:55.378Z,98090.19
2022-08-14T05:58:57.079Z,98084.34
2022-08-14T06:02:02.372Z,98089.03
2022-08-14T06:05:07.958Z,98089.44
2022-08-14T06:08:36.730Z,98087.16
2022-08-14T06:11:40.523Z,98086.25
2022-08-14T06:14:43.189Z,98084.72
2022-08-14T06:17:47.033Z,98084.25
2022-08-14T06:20:57.613Z,98083.50
2022-08-14T06:24:00.933Z,98078.53
2022-08-14T06:27:04.418Z,98086.75
2022-08-14T06:30:09.110Z,98089.56
2022-08-14T06:33:13.282Z,98084.41
2022-08-14T06:36:18.413Z,98091.06
2022-08-14T06:39:36.454Z,98083.88
2022-08-14T06:42:39.735Z,98089.56
2022-08-14T06:45:50.375Z,98092.34
2022-08-14T06:48:55.937Z,98082.06
2022-08-14T06:51:58.137Z,98081.19
2022-08-14T06:55:01.131Z,98083.81
2022-08-14T06:58:03.316Z,98073.91
2022-08-14T07:01:27.553Z,98084.53
2022-08-14T07:04:49.173Z,98084.06
2022-08-14T07:07:53.285Z,98089.56
2022-08-14T07:10:56.969Z,98092.84
2022-08-14T07:14:01.306Z,98089.13
2022-08-14T07:17:06.099Z,98076.47
2022-08-14T07:20:09.881Z,98092.44
2022-08-14T07:23:20.820Z,98091.09
2022-08-14T07:26:29.527Z,98083.72
2022-08-14T07:29:31.304Z,98086.22
2022-08-14T07:32:34.048Z,98083.56
2022-08-14T07:35:42.997Z,98080.47
2022-08-14T07:38:58.508Z,98077.16
2022-08-14T07:42:02.013Z,98081.09
2022-08-14T07:45:03.826Z,98085.88
2022-08-14T07:48:06.353Z,98084.56
2022-08-14T07:51:11.480Z,98092.38
2022-08-14T07:54:16.546Z,98083.28
2022-08-14T07:57:28.052Z,98085.28
2022-08-14T08:00:33.292Z,98075.84
2022-08-14T08:03:38.841Z,98070.75
2022-08-14T08:06:40.692Z,98061.94
2022-08-14T08:09:45.902Z,98060.41
2022-08-14T08:12:49.638Z,98060.28
2022-08-14T08:15:53.860Z,98065.75
2022-08-14T08:19:01.765Z,98065.09
2022-08-14T08:22:07.545Z,98061.34
2022-08-14T08:25:13.405Z,98053.88
2022-08-14T08:28:22.032Z,98054.59
2022-08-14T08:31:32.679Z,98046.44
2022-08-14T08:34:47.591Z,98039.44
2022-08-14T08:37:53.763Z,98035.34
2022-08-14T08:41:03.643Z,98034.00
2022-08-14T08:44:17.463Z,98030.44
2022-08-14T08:47:37.995Z,98030.41
2022-08-14T08:53:40.547Z,98012.19
2022-08-14T08:56:44.873Z,98006.88
2022-08-14T08:59:54.714Z,98006.88
2022-08-14T09:02:58.267Z,98005.47
2022-08-14T09:06:03.240Z,98000.38
2022-08-14T09:09:05.108Z,97995.47
2022-08-14T09:12:14.037Z,98001.94
2022-08-14T09:15:18.531Z,98000.53
2022-08-14T09:18:27.280Z,97997.47
2022-08-14T09:21:31.251Z,98002.03
2022-08-14T09:24:35.432Z,98000.47
2022-08-14T09:27:45.742Z,97997.34
2022-08-14T09:30:52.024Z,98000.91
2022-08-14T09:33:59.355Z,97992.72
2022-08-14T09:37:28.872Z,97991.34
2022-08-14T09:40:39.077Z,97991.03
2022-08-14T09:43:45.563Z,97983.00
2022-08-14T09:46:56.638Z,97973.06
2022-08-14T09:49:59.883Z,97973.50
2022-08-14T09:53:05.164Z,97964.19
2022-08-14T09:56:10.133Z,97969.47
2022-08-14T09:59:16.674Z,97965.47
2022-08-14T10:02:24.523Z,97968.66
2022-08-14T10:05:31.054Z,97964.53
2022-08-14T10:08:40.734Z,97955.88
2022-08-14T10:11:58.687Z,97951.91
2022-08-14T10:15:01.057Z,97938.59
2022-08-14T10:18:17.320Z,97941.66
2022-08-14T10:21:20.068Z,97938.22
2022-08-14T10:24:36.391Z,97928.06
2022-08-14T10:27:38.721Z,97925.63
2022-08-14T10:30:40.899Z,97915.81
2022-08-14T10:33:50.792Z,97920.13
2022-08-14T10:37:02.785Z,97909.63
2022-08-14T10:40:36.766Z,97902.22
2022-08-14T10:43:31.927Z,97905.44
2022-08-14T10:47:39.555Z,97906.00
2022-08-14T10:50:03.628Z,97896.06
2022-08-14T10:53:06.634Z,97906.59
2022-08-14T10:56:21.756Z,97890.03
2022-08-14T10:59:43.196Z,97892.75
2022-08-14T11:02:55.246Z,97888.34
2022-08-14T11:06:01.241Z,97881.69
2022-08-14T11:09:11.513Z,97882.22
2022-08-14T11:12:33.928Z,97893.28
2022-08-14T11:15:35.876Z,97890.75
2022-08-14T11:18:40.391Z,97886.97
2022-08-14T11:21:45.664Z,97889.63
2022-08-14T11:24:54.984Z,97879.47
2022-08-14T11:27:58.774Z,97874.41
2022-08-14T11:31:03.567Z,97886.09
2022-08-14T11:34:05.532Z,97866.66
2022-08-14T11:37:19.130Z,97857.84
2022-08-14T11:40:29.746Z,97865.72
2022-08-14T11:43:35.013Z,97869.75
2022-08-14T11:46:37.958Z,97871.09
2022-08-14T11:49:40.360Z,97861.13
2022-08-14T11:52:45.123Z,97856.13
2022-08-14T11:55:57.269Z,97855.16
2022-08-14T11:59:00.157Z,97848.72
2022-08-14T12:03:00.601Z,97837.75
2022-08-14T12:05:39.763Z,97838.31
2022-08-14T12:08:43.437Z,97838.13
2022-08-14T12:11:47.593Z,97836.44
2022-08-14T12:14:57.326Z,97833.09
2022-08-14T12:18:01.171Z,97830.38
2022-08-14T12:21:19.989Z,97830.38
2022-08-14T12:24:36.270Z,97828.19
2022-08-14T12:27:41.602Z,97825.50
2022-08-14T12:30:44.653Z,97825.59
2022-08-14T12:33:56.353Z,97813.44
2022-08-14T12:37:06.050Z,97815.22
2022-08-14T12:40:20.744Z,97809.41
2022-08-14T12:43:22.697Z,97802.06
2022-08-14T12:46:26.942Z,97796.72
2022-08-14T12:49:29.931Z,97798.19
2022-08-14T12:52:41.542Z,97788.00
2022-08-14T12:56:18.618Z,97779.44
2022-08-14T12:59:29.635Z,97776.13
2022-08-14T13:02:37.534Z,97764.53
2022-08-14T13:05:40.288Z,97756.94
2022-08-14T13:08:53.277Z,97761.38
2022-08-14T13:11:59.236Z,97758.63
2022-08-14T13:15:19.350Z,97760.03
2022-08-14T13:18:24.348Z,97764.19
2022-08-14T13:21:27.014Z,97753.91
2022-08-14T13:24:33.398Z,97749.22
2022-08-14T13:27:39.185Z,97749.91
2022-08-14T13:30:45.097Z,97743.91
2022-08-14T13:33:46.736Z,97736.31
2022-08-14T13:36:54.238Z,97735.47
2022-08-14T13:40:01.002Z,97733.84
2022-08-14T13:43:08.897Z,97728.97
2022-08-14T13:46:11.486Z,97727.75
2022-08-14T13:49:14.807Z,97721.97
2022-08-14T13:52:52.485Z,97720.00
2022-08-14T13:55:40.575Z,97724.56
2022-08-14T13:58:47.169Z,97710.94
2022-08-14T14:01:51.899Z,97713.41
2022-08-14T14:04:58.145Z,97703.28
2022-08-14T14:08:04.711Z,97698.50
2022-08-14T14:11:09.720Z,97706.28
2022-08-14T14:14:45.123Z,97694.03
2022-08-14T14:17:36.213Z,97700.75
2022-08-14T14:20:43.211Z,97695.69
2022-08-14T14:23:47.074Z,97684.88
2022-08-14T14:26:50.114Z,97681.50
2022-08-14T14:29:58.864Z,97679.59
2022-08-14T14:33:06.683Z,97674.34
2022-08-14T14:36:21.020Z,97662.25
2022-08-14T14:39:37.835Z,97658.16
2022-08-14T14:42:55.749Z,97663.28
2022-08-14T14:45:59.021Z,97661.59
2022-08-14T14:49:01.314Z,97659.44
2022-08-14T14:52:07.553Z,97655.16
2022-08-14T14:55:12.374Z,97662.25
2022-08-14T14:58:20.484Z,97655.47
2022-08-14T15:01:24.034Z,97651.25
2022-08-14T15:04:26.185Z,97651.69
2022-08-14T15:07:29.802Z,97647.03
2022-08-14T15:10:37.893Z,97648.09
2022-08-14T15:13:43.211Z,97658.00
2022-08-14T15:16:59.140Z,97664.25
2022-08-14T15:20:04.106Z,97667.94
2022-08-14T15:23:12.163Z,97652.44
2022-08-14T15:26:24.055Z,97650.13
2022-08-14T15:29:38.742Z,97638.75
2022-08-14T15:32:46.304Z,97619.47
2022-08-14T15:35:49.386Z,97617.88
2022-08-14T15:38:51.806Z,97609.09
2022-08-14T15:41:53.712Z,97606.81
2022-08-14T15:45:02.418Z,97605.31
2022-08-14T15:48:06.550Z,97611.63
2022-08-14T15:51:14.156Z,97606.31
2022-08-14T15:54:17.962Z,97603.94
2022-08-14T15:57:23.607Z,97605.50
2022-08-14T16:00:49.388Z,97604.69
2022-08-14T16:03:53.696Z,97600.91
2022-08-14T16:06:59.581Z,97594.19
2022-08-14T16:10:28.846Z,97601.78
2022-08-14T16:13:47.810Z,97590.81
2022-08-14T16:16:59.940Z,97596.06
2022-08-14T16:20:05.318Z,97596.47
2022-08-14T16:23:11.470Z,97598.13
2022-08-14T16:26:19.322Z,97601.28
2022-08-14T16:29:21.195Z,97603.16
2022-08-14T16:32:35.825Z,97592.59
2022-08-14T16:35:55.639Z,97593.66
2022-08-14T16:39:00.041Z,97591.34
2022-08-14T16:42:38.115Z,97586.09
2022-08-14T16:45:26.234Z,97583.88
2022-08-14T16:48:55.061Z,97577.72
2022-08-14T16:51:55.234Z,97574.94
2022-08-14T16:55:01.547Z,97580.63
2022-08-14T16:58:03.154Z,97577.03
2022-08-14T17:01:22.600Z,97574.88
2022-08-14T17:04:31.908Z,97574.66
2022-08-14T17:07:35.338Z,97566.19
2022-08-14T17:11:00.008Z,97563.25
2022-08-14T17:14:10.494Z,97563.81
2022-08-14T17:17:12.524Z,97566.09
2022-08-14T17:20:54.802Z,97558.94
2022-08-14T17:23:42.841Z,97559.16
2022-08-14T17:26:45.671Z,97561.03
2022-08-14T17:29:56.661Z,97551.34
2022-08-14T17:33:03.312Z,97552.56
2022-08-14T17:36:10.333Z,97544.34
2022-08-14T17:39:24.442Z,97554.19
2022-08-14T17:42:41.304Z,97547.44
2022-08-14T17:45:45.506Z,97554.16
2022-08-14T17:49:16.254Z,97547.59
2022-08-14T17:52:33.932Z,97553.69
2022-08-14T17:56:02.115Z,97546.25
2022-08-14T17:59:03.964Z,97542.59
2022-08-14T18:02:07.054Z,97546.16
2022-08-14T18:05:10.576Z,97547.13
2022-08-14T18:08:34.039Z,97542.63
2022-08-14T18:11:45.909Z,97548.47
2022-08-14T18:14:53.022Z,97549.44
2022-08-14T18:17:54.972Z,97542.41
2022-08-14T18:21:39.605Z,97543.38
2022-08-14T18:24:29.294Z,97539.56
2022-08-14T18:27:36.143Z,97537.59
2022-08-14T18:30:40.355Z,97538.59
2022-08-14T18:34:07.142Z,97533.00
2022-08-14T18:37:21.214Z,97527.47
2022-08-14T18:40:34.522Z,97530.78
2022-08-14T18:43:42.919Z,97526.09
2022-08-14T18:47:04.688Z,97528.56
2022-08-14T18:50:26.064Z,97531.88
2022-08-14T18:53:33.945Z,97525.94
2022-08-14T18:56:57.687Z,97522.97
2022-08-14T19:00:22.182Z,97534.25
2022-08-14T19:03:55.411Z,97531.72
2022-08-14T19:07:16.317Z,97537.66
2022-08-14T19:10:31.905Z,97540.19
2022-08-14T19:13:48.685Z,97548.59
2022-08-14T19:16:55.928Z,97543.69
2022-08-14T19:20:04.177Z,97534.00
2022-08-14T19:23:14.453Z,97533.34
2022-08-14T19:26:37.657Z,97534.19
2022-08-14T19:29:47.635Z,97530.97
2022-08-14T19:32:58.844Z,97528.25
2022-08-14T19:36:31.484Z,97528.00
2022-08-14T19:39:53.996Z,97529.47
2022-08-14T19:42:59.340Z,97531.13
2022-08-14T19:46:01.549Z,97521.41
2022-08-14T19:49:07.199Z,97530.81
2022-08-14T19:52:20.713Z,97526.22
2022-08-14T19:55:34.737Z,97531.88
2022-08-14T19:58:37.752Z,97529.78
2022-08-14T20:01:56.406Z,97532.50
2022-08-14T20:05:03.887Z,97525.34
2022-08-14T20:08:07.877Z,97528.75
2022-08-14T20:12:00.455Z,97537.78
2022-08-14T20:14:53.324Z,97528.75
2022-08-14T20:17:55.204Z,97533.34
2022-08-14T20:20:58.813Z,97534.19
2022-08-14T20:24:30.397Z,97532.69
2022-08-14T20:27:44.064Z,97532.69
2022-08-14T20:30:48.632Z,97533.75
2022-08-14T20:34:07.982Z,97529.31
2022-08-14T20:37:27.062Z,97521.31
2022-08-14T20:40:31.965Z,97524.41
2022-08-14T20:44:06.861Z,97523.28
2022-08-14T20:47:13.765Z,97519.81
2022-08-14T20:50:22.379Z,97523.31
2022-08-14T20:53:33.930Z,97531.38
2022-08-14T20:56:40.659Z,97533.00
2022-08-14T20:59:43.993Z,97532.50
2022-08-14T21:02:51.036Z,97534.66
2022-08-14T21:05:56.672Z,97549.00
2022-08-14T21:09:02.315Z,97554.91
2022-08-14T21:12:05.023Z,97550.91
2022-08-14T21:15:10.109Z,97550.25
2022-08-14T21:18:19.555Z,97552.72
2022-08-14T21:21:22.579Z,97541.34
2022-08-14T21:24:39.625Z,97542.28
2022-08-14T21:27:57.363Z,97542.22
2022-08-14T21:31:01.087Z,97537.00
2022-08-14T21:34:26.981Z,97542.78
2022-08-14T21:37:29.907Z,97522.41
2022-08-14T21:40:41.498Z,97525.31
2022-08-14T21:43:45.070Z,97526.34
2022-08-14T21:46:50.495Z,97518.69
2022-08-14T21:49:53.662Z,97517.38
2022-08-14T21:53:00.826Z,97516.00
2022-08-14T21:56:03.286Z,97514.31
2022-08-14T21:59:06.330Z,97513.97
2022-08-14T22:02:10.475Z,97512.78
2022-08-14T22:05:33.918Z,97504.22
2022-08-14T22:08:36.642Z,97510.00
2022-08-14T22:11:42.555Z,97503.53
2022-08-14T22:14:45.446Z,97502.88
2022-08-14T22:17:52.326Z,97498.97
2022-08-14T22:20:58.052Z,97496.66
2022-08-14T22:24:00.004Z,97504.88
2022-08-14T22:27:03.224Z,97503.91
2022-08-14T22:30:13.497Z,97504.25
2022-08-14T22:33:22.072Z,97508.56
2022-08-14T22:36:48.304Z,97497.50
2022-08-14T22:40:48.331Z,97491.81
2022-08-14T22:43:13.433Z,97494.72
2022-08-14T22:46:20.549Z,97490.66
2022-08-14T22:50:30.356Z,97496.59
2022-08-14T22:52:49.895Z,97495.28
2022-08-14T22:55:53.787Z,97497.44
2022-08-14T22:58:56.373Z,97498.59
2022-08-14T23:02:03.652Z,97500.97
2022-08-14T23:05:06.362Z,97501.44
2022-08-14T23:08:59.676Z,97509.44
2022-08-14T23:11:39.960Z,97523.91
2022-08-14T23:14:42.878Z,97524.13
2022-08-14T23:17:44.737Z,97519.72
2022-08-14T23:20:48.362Z,97515.69
2022-08-14T23:23:55.222Z,97528.50
2022-08-14T23:26:58.178Z,97505.25
2022-08-14T23:30:00.499Z,97512.41
2022-08-14T23:33:02.547Z,97494.72
2022-08-14T23:36:31.392Z,97504.69
2022-08-14T23:39:31.446Z,97508.03
2022-08-14T23:42:40.113Z,97510.72
2022-08-14T23:45:47.994Z,97503.06
2022-08-14T23:48:50.534Z,97494.44
2022-08-14T23:51:59.847Z,97486.50
2022-08-14T23:55:15.630Z,97479.88
2022-08-14T23:58:29.012Z,97469.03
